sensor_id;sensor_type;location;lat;lon;timestamp;P1;durP1;ratioP1;P2;durP2;ratioP2
49217;SDS011;35045;51.194;7.268;2022-12-18T00:00:32;8.00;;;4.93;;
49217;SDS011;35045;51.194;7.268;2022-12-18T00:02:58;9.80;;;5.32;;
49217;SDS011;35045;51.194;7.268;2022-12-18T00:05:24;9.38;;;4.93;;
49217;SDS011;35045;51.194;7.268;2022-12-18T00:07:50;10.38;;;5.00;;
49217;SDS011;35045;51.194;7.268;2022-12-18T00:10:17;11.38;;;4.75;;
49217;SDS011;35045;51.194;7.268;2022-12-18T00:12:43;9.68;;;5.05;;
49217;SDS011;35045;51.194;7.268;2022-12-18T00:15:09;9.18;;;4.25;;
49217;SDS011;35045;51.194;7.268;2022-12-18T00:17:35;9.23;;;4.75;;
49217;SDS011;35045;51.194;7.268;2022-12-18T00:20:01;9.57;;;4.93;;
49217;SDS011;35045;51.194;7.268;2022-12-18T00:22:27;10.75;;;5.10;;
49217;SDS011;35045;51.194;7.268;2022-12-18T00:24:54;10.48;;;4.90;;
49217;SDS011;35045;51.194;7.268;2022-12-18T00:27:20;10.82;;;4.85;;
49217;SDS011;35045;51.194;7.268;2022-12-18T00:29:47;8.52;;;4.55;;
49217;SDS011;35045;51.194;7.268;2022-12-18T00:32:13;10.50;;;4.95;;
49217;SDS011;35045;51.194;7.268;2022-12-18T00:34:40;10.95;;;4.85;;
49217;SDS011;35045;51.194;7.268;2022-12-18T00:37:06;9.95;;;4.65;;
49217;SDS011;35045;51.194;7.268;2022-12-18T00:39:32;9.65;;;5.72;;
49217;SDS011;35045;51.194;7.268;2022-12-18T00:41:58;11.57;;;5.22;;
49217;SDS011;35045;51.194;7.268;2022-12-18T00:44:43;9.98;;;5.30;;
49217;SDS011;35045;51.194;7.268;2022-12-18T00:47:09;8.77;;;4.82;;
49217;SDS011;35045;51.194;7.268;2022-12-18T00:49:35;9.52;;;5.32;;
49217;SDS011;35045;51.194;7.268;2022-12-18T00:52:01;9.88;;;5.95;;
49217;SDS011;35045;51.194;7.268;2022-12-18T00:54:28;11.63;;;4.82;;
49217;SDS011;35045;51.194;7.268;2022-12-18T00:56:54;10.10;;;4.93;;
49217;SDS011;35045;51.194;7.268;2022-12-18T00:59:20;9.38;;;5.30;;
49217;SDS011;35045;51.194;7.268;2022-12-18T01:01:47;10.48;;;4.68;;
49217;SDS011;35045;51.194;7.268;2022-12-18T01:04:13;9.77;;;5.50;;
49217;SDS011;35045;51.194;7.268;2022-12-18T01:06:40;8.68;;;4.88;;
49217;SDS011;35045;51.194;7.268;2022-12-18T01:09:06;10.57;;;5.80;;
49217;SDS011;35045;51.194;7.268;2022-12-18T01:11:32;10.88;;;5.75;;
49217;SDS011;35045;51.194;7.268;2022-12-18T01:13:58;11.70;;;5.90;;
49217;SDS011;35045;51.194;7.268;2022-12-18T01:16:25;11.77;;;5.78;;
49217;SDS011;35045;51.194;7.268;2022-12-18T01:18:51;12.25;;;6.40;;
49217;SDS011;35045;51.194;7.268;2022-12-18T01:21:19;10.55;;;5.40;;
49217;SDS011;35045;51.194;7.268;2022-12-18T01:23:46;11.35;;;5.47;;
49217;SDS011;35045;51.194;7.268;2022-12-18T01:26:15;9.32;;;5.05;;
49217;SDS011;35045;51.194;7.268;2022-12-18T01:28:42;10.73;;;4.57;;
49217;SDS011;35045;51.194;7.268;2022-12-18T01:31:19;10.75;;;5.70;;
49217;SDS011;35045;51.194;7.268;2022-12-18T01:33:48;9.57;;;5.18;;
49217;SDS011;35045;51.194;7.268;2022-12-18T01:36:16;9.25;;;5.18;;
49217;SDS011;35045;51.194;7.268;2022-12-18T01:38:43;9.00;;;5.35;;
49217;SDS011;35045;51.194;7.268;2022-12-18T01:41:10;9.35;;;5.00;;
49217;SDS011;35045;51.194;7.268;2022-12-18T01:43:55;10.13;;;4.78;;
49217;SDS011;35045;51.194;7.268;2022-12-18T01:46:24;9.55;;;4.97;;
49217;SDS011;35045;51.194;7.268;2022-12-18T01:48:53;8.13;;;4.57;;
49217;SDS011;35045;51.194;7.268;2022-12-18T01:51:27;8.52;;;5.00;;
49217;SDS011;35045;51.194;7.268;2022-12-18T01:53:54;8.98;;;5.18;;
49217;SDS011;35045;51.194;7.268;2022-12-18T01:56:21;8.65;;;5.05;;
49217;SDS011;35045;51.194;7.268;2022-12-18T02:01:23;8.00;;;4.30;;
49217;SDS011;35045;51.194;7.268;2022-12-18T02:03:50;8.45;;;4.97;;
49217;SDS011;35045;51.194;7.268;2022-12-18T02:09:07;8.73;;;4.47;;
49217;SDS011;35045;51.194;7.268;2022-12-18T02:11:39;9.70;;;5.45;;
49217;SDS011;35045;51.194;7.268;2022-12-18T02:17:16;9.45;;;4.78;;
49217;SDS011;35045;51.194;7.268;2022-12-18T02:25:28;11.00;;;5.50;;
49217;SDS011;35045;51.194;7.268;2022-12-18T02:28:13;8.93;;;4.35;;
49217;SDS011;35045;51.194;7.268;2022-12-18T02:30:44;9.32;;;4.95;;
49217;SDS011;35045;51.194;7.268;2022-12-18T02:33:13;10.10;;;4.88;;
49217;SDS011;35045;51.194;7.268;2022-12-18T02:35:40;8.40;;;4.25;;
49217;SDS011;35045;51.194;7.268;2022-12-18T02:38:08;10.18;;;5.15;;
49217;SDS011;35045;51.194;7.268;2022-12-18T02:40:35;7.72;;;3.97;;
49217;SDS011;35045;51.194;7.268;2022-12-18T02:43:07;10.38;;;5.30;;
49217;SDS011;35045;51.194;7.268;2022-12-18T02:45:34;9.63;;;4.88;;
49217;SDS011;35045;51.194;7.268;2022-12-18T02:48:00;9.52;;;4.53;;
49217;SDS011;35045;51.194;7.268;2022-12-18T02:53:11;11.10;;;4.82;;
49217;SDS011;35045;51.194;7.268;2022-12-18T02:56:09;9.60;;;4.95;;
49217;SDS011;35045;51.194;7.268;2022-12-18T02:59:00;8.55;;;4.15;;
49217;SDS011;35045;51.194;7.268;2022-12-18T03:01:33;11.07;;;4.47;;
49217;SDS011;35045;51.194;7.268;2022-12-18T03:04:07;8.38;;;4.15;;
49217;SDS011;35045;51.194;7.268;2022-12-18T03:06:48;8.18;;;4.32;;
49217;SDS011;35045;51.194;7.268;2022-12-18T03:09:20;10.02;;;4.88;;
49217;SDS011;35045;51.194;7.268;2022-12-18T03:11:54;7.85;;;4.22;;
49217;SDS011;35045;51.194;7.268;2022-12-18T03:14:42;9.40;;;5.07;;
49217;SDS011;35045;51.194;7.268;2022-12-18T03:17:13;9.82;;;4.43;;
49217;SDS011;35045;51.194;7.268;2022-12-18T03:19:42;8.38;;;4.40;;
49217;SDS011;35045;51.194;7.268;2022-12-18T03:22:09;9.20;;;4.65;;
49217;SDS011;35045;51.194;7.268;2022-12-18T03:24:35;11.75;;;5.35;;
49217;SDS011;35045;51.194;7.268;2022-12-18T03:27:06;7.15;;;4.13;;
49217;SDS011;35045;51.194;7.268;2022-12-18T03:29:43;8.48;;;4.43;;
49217;SDS011;35045;51.194;7.268;2022-12-18T03:32:24;8.70;;;4.05;;
49217;SDS011;35045;51.194;7.268;2022-12-18T03:34:57;8.10;;;4.30;;
49217;SDS011;35045;51.194;7.268;2022-12-18T03:37:31;8.57;;;4.65;;
49217;SDS011;35045;51.194;7.268;2022-12-18T03:39:57;9.50;;;4.78;;
49217;SDS011;35045;51.194;7.268;2022-12-18T03:45:19;9.18;;;4.55;;
49217;SDS011;35045;51.194;7.268;2022-12-18T03:50:33;7.38;;;4.32;;
49217;SDS011;35045;51.194;7.268;2022-12-18T03:53:18;9.07;;;4.55;;
49217;SDS011;35045;51.194;7.268;2022-12-18T03:56:05;8.30;;;4.53;;
49217;SDS011;35045;51.194;7.268;2022-12-18T03:58:32;9.23;;;4.20;;
49217;SDS011;35045;51.194;7.268;2022-12-18T04:01:01;8.90;;;4.15;;
49217;SDS011;35045;51.194;7.268;2022-12-18T04:03:31;9.07;;;4.63;;
49217;SDS011;35045;51.194;7.268;2022-12-18T04:06:00;8.60;;;3.90;;
49217;SDS011;35045;51.194;7.268;2022-12-18T04:08:28;8.82;;;4.57;;
49217;SDS011;35045;51.194;7.268;2022-12-18T04:10:55;7.97;;;4.47;;
49217;SDS011;35045;51.194;7.268;2022-12-18T04:13:22;7.22;;;3.50;;
49217;SDS011;35045;51.194;7.268;2022-12-18T04:15:55;8.82;;;4.43;;
49217;SDS011;35045;51.194;7.268;2022-12-18T04:18:21;8.02;;;4.05;;
49217;SDS011;35045;51.194;7.268;2022-12-18T04:20:47;8.07;;;4.20;;
49217;SDS011;35045;51.194;7.268;2022-12-18T04:23:13;7.18;;;3.22;;
49217;SDS011;35045;51.194;7.268;2022-12-18T04:25:39;8.10;;;3.70;;
49217;SDS011;35045;51.194;7.268;2022-12-18T04:28:05;9.57;;;4.72;;
49217;SDS011;35045;51.194;7.268;2022-12-18T04:30:32;7.80;;;4.13;;
49217;SDS011;35045;51.194;7.268;2022-12-18T04:32:58;8.75;;;3.97;;
49217;SDS011;35045;51.194;7.268;2022-12-18T04:35:24;9.20;;;4.10;;
49217;SDS011;35045;51.194;7.268;2022-12-18T04:37:50;8.93;;;3.97;;
49217;SDS011;35045;51.194;7.268;2022-12-18T04:40:16;6.97;;;3.50;;
49217;SDS011;35045;51.194;7.268;2022-12-18T04:42:42;8.35;;;4.40;;
49217;SDS011;35045;51.194;7.268;2022-12-18T04:45:09;8.25;;;3.70;;
49217;SDS011;35045;51.194;7.268;2022-12-18T04:47:35;7.72;;;4.18;;
49217;SDS011;35045;51.194;7.268;2022-12-18T04:50:01;7.85;;;4.40;;
49217;SDS011;35045;51.194;7.268;2022-12-18T04:52:27;7.85;;;3.92;;
49217;SDS011;35045;51.194;7.268;2022-12-18T04:54:54;7.85;;;4.53;;
49217;SDS011;35045;51.194;7.268;2022-12-18T04:57:20;7.93;;;4.25;;
49217;SDS011;35045;51.194;7.268;2022-12-18T04:59:46;8.30;;;4.30;;
49217;SDS011;35045;51.194;7.268;2022-12-18T05:02:12;7.90;;;3.83;;
49217;SDS011;35045;51.194;7.268;2022-12-18T05:04:38;8.02;;;4.05;;
49217;SDS011;35045;51.194;7.268;2022-12-18T05:07:04;7.82;;;4.10;;
49217;SDS011;35045;51.194;7.268;2022-12-18T05:09:30;9.43;;;4.10;;
49217;SDS011;35045;51.194;7.268;2022-12-18T05:11:57;10.70;;;4.85;;
49217;SDS011;35045;51.194;7.268;2022-12-18T05:14:23;8.80;;;4.47;;
49217;SDS011;35045;51.194;7.268;2022-12-18T05:16:49;8.13;;;4.20;;
49217;SDS011;35045;51.194;7.268;2022-12-18T05:19:15;10.13;;;4.63;;
49217;SDS011;35045;51.194;7.268;2022-12-18T05:21:41;9.07;;;4.50;;
49217;SDS011;35045;51.194;7.268;2022-12-18T05:24:08;10.50;;;4.93;;
49217;SDS011;35045;51.194;7.268;2022-12-18T05:26:34;8.75;;;4.68;;
49217;SDS011;35045;51.194;7.268;2022-12-18T05:29:00;7.78;;;4.40;;
49217;SDS011;35045;51.194;7.268;2022-12-18T05:31:26;8.38;;;3.83;;
49217;SDS011;35045;51.194;7.268;2022-12-18T05:33:52;9.13;;;4.90;;
49217;SDS011;35045;51.194;7.268;2022-12-18T05:36:19;8.93;;;4.57;;
49217;SDS011;35045;51.194;7.268;2022-12-18T05:38:45;8.52;;;4.38;;
49217;SDS011;35045;51.194;7.268;2022-12-18T05:41:12;7.85;;;4.32;;
49217;SDS011;35045;51.194;7.268;2022-12-18T05:43:38;8.93;;;4.32;;
49217;SDS011;35045;51.194;7.268;2022-12-18T05:46:06;8.48;;;4.15;;
49217;SDS011;35045;51.194;7.268;2022-12-18T05:48:34;9.43;;;4.30;;
49217;SDS011;35045;51.194;7.268;2022-12-18T05:51:04;9.25;;;4.57;;
49217;SDS011;35045;51.194;7.268;2022-12-18T05:53:35;9.88;;;5.45;;
49217;SDS011;35045;51.194;7.268;2022-12-18T05:56:03;10.23;;;5.00;;
49217;SDS011;35045;51.194;7.268;2022-12-18T05:58:31;8.45;;;4.95;;
49217;SDS011;35045;51.194;7.268;2022-12-18T06:00:58;9.40;;;5.32;;
49217;SDS011;35045;51.194;7.268;2022-12-18T06:03:31;11.50;;;5.15;;
49217;SDS011;35045;51.194;7.268;2022-12-18T06:05:58;9.68;;;4.97;;
49217;SDS011;35045;51.194;7.268;2022-12-18T06:08:25;10.45;;;5.43;;
49217;SDS011;35045;51.194;7.268;2022-12-18T06:10:52;9.85;;;6.13;;
49217;SDS011;35045;51.194;7.268;2022-12-18T06:13:19;9.68;;;4.88;;
49217;SDS011;35045;51.194;7.268;2022-12-18T06:15:45;11.05;;;5.57;;
49217;SDS011;35045;51.194;7.268;2022-12-18T06:18:11;13.88;;;6.00;;
49217;SDS011;35045;51.194;7.268;2022-12-18T06:20:37;11.95;;;6.40;;
49217;SDS011;35045;51.194;7.268;2022-12-18T06:23:05;9.82;;;5.60;;
49217;SDS011;35045;51.194;7.268;2022-12-18T06:25:32;9.15;;;5.28;;
49217;SDS011;35045;51.194;7.268;2022-12-18T06:28:02;10.32;;;5.75;;
49217;SDS011;35045;51.194;7.268;2022-12-18T06:30:28;11.02;;;5.90;;
49217;SDS011;35045;51.194;7.268;2022-12-18T06:32:54;12.65;;;6.25;;
49217;SDS011;35045;51.194;7.268;2022-12-18T06:35:21;10.15;;;5.38;;
49217;SDS011;35045;51.194;7.268;2022-12-18T06:37:47;10.15;;;5.75;;
49217;SDS011;35045;51.194;7.268;2022-12-18T06:40:14;11.85;;;6.25;;
49217;SDS011;35045;51.194;7.268;2022-12-18T06:42:40;11.85;;;6.47;;
49217;SDS011;35045;51.194;7.268;2022-12-18T06:45:06;11.40;;;5.70;;
49217;SDS011;35045;51.194;7.268;2022-12-18T06:47:33;12.07;;;5.97;;
49217;SDS011;35045;51.194;7.268;2022-12-18T06:49:59;10.07;;;5.82;;
49217;SDS011;35045;51.194;7.268;2022-12-18T06:52:25;10.98;;;5.70;;
49217;SDS011;35045;51.194;7.268;2022-12-18T06:54:51;10.93;;;5.90;;
49217;SDS011;35045;51.194;7.268;2022-12-18T06:57:17;10.38;;;5.90;;
49217;SDS011;35045;51.194;7.268;2022-12-18T06:59:43;11.52;;;5.50;;
49217;SDS011;35045;51.194;7.268;2022-12-18T07:02:12;13.23;;;6.07;;
49217;SDS011;35045;51.194;7.268;2022-12-18T07:04:39;11.45;;;6.10;;
49217;SDS011;35045;51.194;7.268;2022-12-18T07:07:05;13.40;;;6.25;;
49217;SDS011;35045;51.194;7.268;2022-12-18T07:09:32;11.25;;;6.65;;
49217;SDS011;35045;51.194;7.268;2022-12-18T07:11:58;10.82;;;6.40;;
49217;SDS011;35045;51.194;7.268;2022-12-18T07:14:24;12.25;;;6.18;;
49217;SDS011;35045;51.194;7.268;2022-12-18T07:16:50;10.02;;;5.82;;
49217;SDS011;35045;51.194;7.268;2022-12-18T07:19:16;12.90;;;6.35;;
49217;SDS011;35045;51.194;7.268;2022-12-18T07:21:42;12.63;;;5.95;;
49217;SDS011;35045;51.194;7.268;2022-12-18T07:24:09;12.35;;;6.65;;
49217;SDS011;35045;51.194;7.268;2022-12-18T07:26:35;11.10;;;6.18;;
49217;SDS011;35045;51.194;7.268;2022-12-18T07:29:01;13.20;;;6.25;;
49217;SDS011;35045;51.194;7.268;2022-12-18T07:31:27;11.10;;;5.80;;
49217;SDS011;35045;51.194;7.268;2022-12-18T07:33:53;10.98;;;6.07;;
49217;SDS011;35045;51.194;7.268;2022-12-18T07:36:19;13.77;;;6.43;;
49217;SDS011;35045;51.194;7.268;2022-12-18T07:38:46;10.70;;;6.75;;
49217;SDS011;35045;51.194;7.268;2022-12-18T07:41:13;11.32;;;6.28;;
49217;SDS011;35045;51.194;7.268;2022-12-18T07:43:40;12.75;;;5.97;;
49217;SDS011;35045;51.194;7.268;2022-12-18T07:46:08;12.00;;;6.35;;
49217;SDS011;35045;51.194;7.268;2022-12-18T07:48:35;22.90;;;12.77;;
49217;SDS011;35045;51.194;7.268;2022-12-18T07:51:04;12.55;;;7.90;;
49217;SDS011;35045;51.194;7.268;2022-12-18T07:53:32;16.63;;;10.88;;
49217;SDS011;35045;51.194;7.268;2022-12-18T07:56:00;18.60;;;9.98;;
49217;SDS011;35045;51.194;7.268;2022-12-18T07:58:50;14.65;;;8.18;;
49217;SDS011;35045;51.194;7.268;2022-12-18T08:01:16;13.75;;;7.20;;
49217;SDS011;35045;51.194;7.268;2022-12-18T08:03:42;11.65;;;6.97;;
49217;SDS011;35045;51.194;7.268;2022-12-18T08:06:09;17.40;;;12.23;;
49217;SDS011;35045;51.194;7.268;2022-12-18T08:08:35;12.80;;;7.95;;
49217;SDS011;35045;51.194;7.268;2022-12-18T08:11:02;12.75;;;6.60;;
49217;SDS011;35045;51.194;7.268;2022-12-18T08:13:28;9.57;;;5.82;;
49217;SDS011;35045;51.194;7.268;2022-12-18T08:15:58;14.00;;;7.43;;
49217;SDS011;35045;51.194;7.268;2022-12-18T08:18:29;13.13;;;6.68;;
49217;SDS011;35045;51.194;7.268;2022-12-18T08:20:57;13.25;;;7.57;;
49217;SDS011;35045;51.194;7.268;2022-12-18T08:23:23;84.78;;;41.17;;
49217;SDS011;35045;51.194;7.268;2022-12-18T08:25:52;13.85;;;7.50;;
49217;SDS011;35045;51.194;7.268;2022-12-18T08:28:18;11.52;;;6.72;;
49217;SDS011;35045;51.194;7.268;2022-12-18T08:30:44;11.48;;;7.00;;
49217;SDS011;35045;51.194;7.268;2022-12-18T08:33:10;13.73;;;7.85;;
49217;SDS011;35045;51.194;7.268;2022-12-18T08:35:36;13.10;;;6.95;;
49217;SDS011;35045;51.194;7.268;2022-12-18T08:38:05;10.15;;;6.35;;
49217;SDS011;35045;51.194;7.268;2022-12-18T08:40:31;11.95;;;6.47;;
49217;SDS011;35045;51.194;7.268;2022-12-18T08:42:58;11.05;;;5.68;;
49217;SDS011;35045;51.194;7.268;2022-12-18T08:45:43;10.20;;;5.75;;
49217;SDS011;35045;51.194;7.268;2022-12-18T08:48:09;11.93;;;6.57;;
49217;SDS011;35045;51.194;7.268;2022-12-18T08:50:35;11.93;;;6.40;;
49217;SDS011;35045;51.194;7.268;2022-12-18T08:53:01;11.68;;;6.28;;
49217;SDS011;35045;51.194;7.268;2022-12-18T08:55:27;9.93;;;5.32;;
49217;SDS011;35045;51.194;7.268;2022-12-18T08:57:53;10.48;;;5.15;;
49217;SDS011;35045;51.194;7.268;2022-12-18T09:00:20;12.13;;;7.22;;
49217;SDS011;35045;51.194;7.268;2022-12-18T09:02:46;10.82;;;6.25;;
49217;SDS011;35045;51.194;7.268;2022-12-18T09:05:12;10.55;;;5.75;;
49217;SDS011;35045;51.194;7.268;2022-12-18T09:07:38;10.63;;;5.65;;
49217;SDS011;35045;51.194;7.268;2022-12-18T09:10:05;10.52;;;5.55;;
49217;SDS011;35045;51.194;7.268;2022-12-18T09:12:31;10.32;;;6.00;;
49217;SDS011;35045;51.194;7.268;2022-12-18T09:14:58;10.27;;;5.90;;
49217;SDS011;35045;51.194;7.268;2022-12-18T09:17:24;10.23;;;5.13;;
49217;SDS011;35045;51.194;7.268;2022-12-18T09:19:50;10.25;;;5.47;;
49217;SDS011;35045;51.194;7.268;2022-12-18T09:22:16;9.75;;;5.57;;
49217;SDS011;35045;51.194;7.268;2022-12-18T09:24:42;8.57;;;6.20;;
49217;SDS011;35045;51.194;7.268;2022-12-18T09:27:09;9.30;;;5.00;;
49217;SDS011;35045;51.194;7.268;2022-12-18T09:29:35;10.18;;;4.93;;
49217;SDS011;35045;51.194;7.268;2022-12-18T09:32:01;9.10;;;5.03;;
49217;SDS011;35045;51.194;7.268;2022-12-18T09:34:27;9.27;;;5.20;;
49217;SDS011;35045;51.194;7.268;2022-12-18T09:36:53;9.65;;;4.85;;
49217;SDS011;35045;51.194;7.268;2022-12-18T09:39:20;7.80;;;4.47;;
49217;SDS011;35045;51.194;7.268;2022-12-18T09:44:53;8.27;;;4.25;;
49217;SDS011;35045;51.194;7.268;2022-12-18T09:47:23;9.93;;;5.22;;
49217;SDS011;35045;51.194;7.268;2022-12-18T09:49:56;8.95;;;4.55;;
49217;SDS011;35045;51.194;7.268;2022-12-18T09:52:48;9.23;;;4.95;;
49217;SDS011;35045;51.194;7.268;2022-12-18T09:57:51;8.50;;;4.88;;
49217;SDS011;35045;51.194;7.268;2022-12-18T10:00:23;7.30;;;4.25;;
49217;SDS011;35045;51.194;7.268;2022-12-18T10:02:51;9.63;;;5.22;;
49217;SDS011;35045;51.194;7.268;2022-12-18T10:08:29;8.98;;;4.57;;
49217;SDS011;35045;51.194;7.268;2022-12-18T10:13:46;9.85;;;6.43;;
49217;SDS011;35045;51.194;7.268;2022-12-18T10:16:29;10.07;;;5.60;;
49217;SDS011;35045;51.194;7.268;2022-12-18T10:19:15;8.82;;;5.50;;
49217;SDS011;35045;51.194;7.268;2022-12-18T10:27:51;9.25;;;5.30;;
49217;SDS011;35045;51.194;7.268;2022-12-18T10:30:21;9.65;;;5.38;;
49217;SDS011;35045;51.194;7.268;2022-12-18T10:32:48;9.02;;;5.40;;
49217;SDS011;35045;51.194;7.268;2022-12-18T10:35:17;9.65;;;5.53;;
49217;SDS011;35045;51.194;7.268;2022-12-18T10:37:59;10.60;;;5.38;;
49217;SDS011;35045;51.194;7.268;2022-12-18T10:40:28;8.40;;;5.07;;
49217;SDS011;35045;51.194;7.268;2022-12-18T10:43:11;9.35;;;5.20;;
49217;SDS011;35045;51.194;7.268;2022-12-18T10:45:40;9.18;;;5.25;;
49217;SDS011;35045;51.194;7.268;2022-12-18T10:48:19;8.85;;;4.95;;
49217;SDS011;35045;51.194;7.268;2022-12-18T10:50:48;9.85;;;5.35;;
49217;SDS011;35045;51.194;7.268;2022-12-18T10:53:37;11.23;;;5.78;;
49217;SDS011;35045;51.194;7.268;2022-12-18T10:56:05;8.90;;;5.20;;
49217;SDS011;35045;51.194;7.268;2022-12-18T10:58:33;8.93;;;5.20;;
49217;SDS011;35045;51.194;7.268;2022-12-18T11:01:14;9.90;;;5.95;;
49217;SDS011;35045;51.194;7.268;2022-12-18T11:06:24;9.45;;;5.32;;
49217;SDS011;35045;51.194;7.268;2022-12-18T11:09:01;10.05;;;5.68;;
49217;SDS011;35045;51.194;7.268;2022-12-18T11:11:32;10.25;;;5.75;;
49217;SDS011;35045;51.194;7.268;2022-12-18T11:14:15;10.75;;;6.40;;
49217;SDS011;35045;51.194;7.268;2022-12-18T11:16:47;9.38;;;5.40;;
49217;SDS011;35045;51.194;7.268;2022-12-18T11:19:37;9.52;;;5.78;;
49217;SDS011;35045;51.194;7.268;2022-12-18T11:24:57;8.00;;;4.85;;
49217;SDS011;35045;51.194;7.268;2022-12-18T11:27:56;10.45;;;5.90;;
49217;SDS011;35045;51.194;7.268;2022-12-18T11:30:28;10.32;;;5.85;;
49217;SDS011;35045;51.194;7.268;2022-12-18T11:33:16;9.52;;;6.05;;
49217;SDS011;35045;51.194;7.268;2022-12-18T11:35:53;9.68;;;5.57;;
49217;SDS011;35045;51.194;7.268;2022-12-18T11:38:24;9.85;;;6.50;;
49217;SDS011;35045;51.194;7.268;2022-12-18T11:41:05;11.00;;;6.50;;
49217;SDS011;35045;51.194;7.268;2022-12-18T11:43:50;10.07;;;5.93;;
49217;SDS011;35045;51.194;7.268;2022-12-18T11:49:01;9.98;;;6.53;;
49217;SDS011;35045;51.194;7.268;2022-12-18T11:51:35;10.30;;;6.28;;
49217;SDS011;35045;51.194;7.268;2022-12-18T11:54:13;9.70;;;6.05;;
49217;SDS011;35045;51.194;7.268;2022-12-18T11:56:58;12.15;;;6.82;;
49217;SDS011;35045;51.194;7.268;2022-12-18T12:12:52;11.30;;;7.38;;
49217;SDS011;35045;51.194;7.268;2022-12-18T12:18:33;12.45;;;7.43;;
49217;SDS011;35045;51.194;7.268;2022-12-18T12:21:03;12.23;;;7.85;;
49217;SDS011;35045;51.194;7.268;2022-12-18T12:26:21;12.50;;;7.57;;
49217;SDS011;35045;51.194;7.268;2022-12-18T12:40:21;18.70;;;7.93;;
49217;SDS011;35045;51.194;7.268;2022-12-18T12:43:19;11.60;;;8.02;;
49217;SDS011;35045;51.194;7.268;2022-12-18T12:48:35;11.45;;;7.78;;
49217;SDS011;35045;51.194;7.268;2022-12-18T12:51:23;12.68;;;8.23;;
49217;SDS011;35045;51.194;7.268;2022-12-18T12:53:53;12.30;;;8.60;;
49217;SDS011;35045;51.194;7.268;2022-12-18T12:56:21;13.52;;;8.52;;
49217;SDS011;35045;51.194;7.268;2022-12-18T12:59:24;12.90;;;8.75;;
49217;SDS011;35045;51.194;7.268;2022-12-18T13:01:55;13.48;;;8.93;;
49217;SDS011;35045;51.194;7.268;2022-12-18T13:07:05;14.77;;;9.23;;
49217;SDS011;35045;51.194;7.268;2022-12-18T13:12:51;14.23;;;8.57;;
49217;SDS011;35045;51.194;7.268;2022-12-18T13:15:45;15.40;;;8.98;;
49217;SDS011;35045;51.194;7.268;2022-12-18T13:18:29;15.32;;;9.98;;
49217;SDS011;35045;51.194;7.268;2022-12-18T13:23:27;15.45;;;9.77;;
49217;SDS011;35045;51.194;7.268;2022-12-18T13:36:51;16.45;;;10.98;;
49217;SDS011;35045;51.194;7.268;2022-12-18T13:41:48;15.95;;;10.23;;
49217;SDS011;35045;51.194;7.268;2022-12-18T13:44:32;16.23;;;10.70;;
49217;SDS011;35045;51.194;7.268;2022-12-18T13:47:24;16.58;;;11.27;;
49217;SDS011;35045;51.194;7.268;2022-12-18T13:49:56;16.65;;;10.93;;
49217;SDS011;35045;51.194;7.268;2022-12-18T13:52:24;17.10;;;10.98;;
49217;SDS011;35045;51.194;7.268;2022-12-18T13:54:57;16.45;;;11.52;;
49217;SDS011;35045;51.194;7.268;2022-12-18T13:57:32;17.48;;;10.80;;
49217;SDS011;35045;51.194;7.268;2022-12-18T14:02:48;18.25;;;11.38;;
49217;SDS011;35045;51.194;7.268;2022-12-18T14:10:19;20.17;;;12.90;;
49217;SDS011;35045;51.194;7.268;2022-12-18T14:13:06;16.15;;;11.27;;
49217;SDS011;35045;51.194;7.268;2022-12-18T14:15:38;19.92;;;12.32;;
49217;SDS011;35045;51.194;7.268;2022-12-18T14:18:13;16.88;;;10.95;;
49217;SDS011;35045;51.194;7.268;2022-12-18T14:20:58;19.02;;;12.25;;
49217;SDS011;35045;51.194;7.268;2022-12-18T14:25:56;18.33;;;11.70;;
49217;SDS011;35045;51.194;7.268;2022-12-18T14:28:25;20.02;;;12.48;;
49217;SDS011;35045;51.194;7.268;2022-12-18T14:30:52;16.00;;;10.50;;
49217;SDS011;35045;51.194;7.268;2022-12-18T14:33:21;20.25;;;12.93;;
49217;SDS011;35045;51.194;7.268;2022-12-18T14:35:57;17.63;;;12.23;;
49217;SDS011;35045;51.194;7.268;2022-12-18T14:41:03;19.13;;;12.20;;
49217;SDS011;35045;51.194;7.268;2022-12-18T14:43:37;17.90;;;12.30;;
49217;SDS011;35045;51.194;7.268;2022-12-18T14:46:25;19.98;;;12.10;;
49217;SDS011;35045;51.194;7.268;2022-12-18T14:48:55;18.40;;;11.73;;
49217;SDS011;35045;51.194;7.268;2022-12-18T14:51:23;17.00;;;12.13;;
49217;SDS011;35045;51.194;7.268;2022-12-18T14:56:28;18.70;;;12.65;;
49217;SDS011;35045;51.194;7.268;2022-12-18T14:59:03;18.50;;;12.30;;
49217;SDS011;35045;51.194;7.268;2022-12-18T15:01:38;19.27;;;12.13;;
49217;SDS011;35045;51.194;7.268;2022-12-18T15:07:14;19.30;;;12.85;;
49217;SDS011;35045;51.194;7.268;2022-12-18T15:12:44;19.55;;;12.80;;
49217;SDS011;35045;51.194;7.268;2022-12-18T15:18:00;19.67;;;12.93;;
49217;SDS011;35045;51.194;7.268;2022-12-18T15:20:27;20.83;;;13.77;;
49217;SDS011;35045;51.194;7.268;2022-12-18T15:22:55;20.77;;;13.63;;
49217;SDS011;35045;51.194;7.268;2022-12-18T15:25:29;19.90;;;13.73;;
49217;SDS011;35045;51.194;7.268;2022-12-18T15:27:59;21.77;;;13.55;;
49217;SDS011;35045;51.194;7.268;2022-12-18T15:30:26;21.17;;;13.73;;
49217;SDS011;35045;51.194;7.268;2022-12-18T15:32:52;21.05;;;13.75;;
49217;SDS011;35045;51.194;7.268;2022-12-18T15:36:02;20.08;;;14.23;;
49217;SDS011;35045;51.194;7.268;2022-12-18T15:38:30;23.23;;;14.23;;
49217;SDS011;35045;51.194;7.268;2022-12-18T15:40:56;21.38;;;14.48;;
49217;SDS011;35045;51.194;7.268;2022-12-18T15:43:24;23.98;;;16.80;;
49217;SDS011;35045;51.194;7.268;2022-12-18T15:46:08;22.73;;;14.52;;
49217;SDS011;35045;51.194;7.268;2022-12-18T15:48:47;24.58;;;16.27;;
49217;SDS011;35045;51.194;7.268;2022-12-18T15:51:18;20.48;;;14.43;;
49217;SDS011;35045;51.194;7.268;2022-12-18T15:53:47;21.60;;;15.52;;
49217;SDS011;35045;51.194;7.268;2022-12-18T15:56:15;21.17;;;14.30;;
49217;SDS011;35045;51.194;7.268;2022-12-18T15:59:00;22.08;;;15.00;;
49217;SDS011;35045;51.194;7.268;2022-12-18T16:01:28;23.60;;;15.23;;
49217;SDS011;35045;51.194;7.268;2022-12-18T16:03:56;24.58;;;16.35;;
49217;SDS011;35045;51.194;7.268;2022-12-18T16:06:23;23.27;;;15.65;;
49217;SDS011;35045;51.194;7.268;2022-12-18T16:08:49;24.30;;;14.55;;
49217;SDS011;35045;51.194;7.268;2022-12-18T16:11:22;23.77;;;15.38;;
49217;SDS011;35045;51.194;7.268;2022-12-18T16:14:27;23.45;;;15.68;;
49217;SDS011;35045;51.194;7.268;2022-12-18T16:16:57;22.52;;;15.23;;
49217;SDS011;35045;51.194;7.268;2022-12-18T16:19:25;24.33;;;16.02;;
49217;SDS011;35045;51.194;7.268;2022-12-18T16:21:52;26.13;;;17.83;;
49217;SDS011;35045;51.194;7.268;2022-12-18T16:24:21;26.50;;;17.48;;
49217;SDS011;35045;51.194;7.268;2022-12-18T16:26:49;24.75;;;17.05;;
49217;SDS011;35045;51.194;7.268;2022-12-18T16:29:17;22.85;;;16.63;;
49217;SDS011;35045;51.194;7.268;2022-12-18T16:31:43;24.20;;;16.25;;
49217;SDS011;35045;51.194;7.268;2022-12-18T16:34:19;27.15;;;16.48;;
49217;SDS011;35045;51.194;7.268;2022-12-18T16:36:53;25.10;;;16.65;;
49217;SDS011;35045;51.194;7.268;2022-12-18T16:39:22;25.98;;;17.30;;
49217;SDS011;35045;51.194;7.268;2022-12-18T16:41:48;25.60;;;17.45;;
49217;SDS011;35045;51.194;7.268;2022-12-18T16:44:14;26.15;;;17.75;;
49217;SDS011;35045;51.194;7.268;2022-12-18T16:46:41;23.88;;;15.73;;
49217;SDS011;35045;51.194;7.268;2022-12-18T16:49:17;24.42;;;18.02;;
49217;SDS011;35045;51.194;7.268;2022-12-18T16:51:45;26.67;;;18.13;;
49217;SDS011;35045;51.194;7.268;2022-12-18T16:54:11;27.95;;;17.88;;
49217;SDS011;35045;51.194;7.268;2022-12-18T16:56:40;26.58;;;17.70;;
49217;SDS011;35045;51.194;7.268;2022-12-18T16:59:09;26.95;;;18.23;;
49217;SDS011;35045;51.194;7.268;2022-12-18T17:01:36;28.73;;;18.58;;
49217;SDS011;35045;51.194;7.268;2022-12-18T17:04:03;27.33;;;19.50;;